Time;durP1;ratioP1;P1;durP2;ratioP2;P2;SDS_P1;SDS_P2;PMS_P1;PMS_P2;Temp;Humidity;BMP_temperature;BMP_pressure;BME280_temperature;BME280_humidity;BME280_pressure;Samples;Min_cycle;Max_cycle;Signal;HPM_P1;HPM_P2
2021/09/09 00:00:41;;;;;;;22.33;16.17;;;20.30;1.00;;;;;;5006494;28;20208;-51
2021/09/09 00:03:08;;;;;;;22.03;16.37;;;20.20;1.00;;;;;;5000759;28;20218;-51
2021/09/09 00:05:35;;;;;;;18.77;15.97;;;20.20;1.00;;;;;;4996848;28;20243;-51
2021/09/09 00:08:02;;;;;;;21.77;16.37;;;20.20;1.00;;;;;;4999168;28;20305;-51
2021/09/09 00:10:29;;;;;;;22.23;17.93;;;20.20;1.00;;;;;;5001986;28;20287;-51
2021/09/09 00:12:56;;;;;;;18.80;15.43;;;20.20;1.00;;;;;;5012324;28;20260;-51
2021/09/09 00:15:23;;;;;;;19.63;16.83;;;20.10;1.00;;;;;;5000710;28;20296;-51
2021/09/09 00:17:50;;;;;;;20.93;16.50;;;20.10;18.70;;;;;;4998760;28;20300;-51
2021/09/09 00:20:16;;;;;;;22.37;16.13;;;20.10;1.00;;;;;;4999827;28;20228;-50
2021/09/09 00:22:43;;;;;;;20.87;15.83;;;20.00;99.90;;;;;;5000203;28;20193;-51
2021/09/09 00:25:10;;;;;;;18.83;15.20;;;20.10;99.90;;;;;;5000632;28;20213;-50
2021/09/09 00:27:37;;;;;;;21.57;17.00;;;20.00;99.90;;;;;;5004832;28;20330;-51
2021/09/09 00:30:06;;;;;;;17.27;15.07;;;20.00;99.90;;;;;;4995593;28;20292;-51
2021/09/09 00:32:33;;;;;;;17.53;14.77;;;20.10;99.90;;;;;;4998746;28;20321;-51
2021/09/09 00:35:00;;;;;;;18.87;16.03;;;20.10;99.90;;;;;;5003364;28;20201;-51
2021/09/09 00:37:27;;;;;;;19.10;15.77;;;20.00;99.90;;;;;;4997596;28;20233;-51
2021/09/09 00:39:53;;;;;;;21.23;15.40;;;20.00;99.90;;;;;;4999167;28;20202;-50
2021/09/09 00:42:20;;;;;;;21.83;16.07;;;20.00;99.90;;;;;;5001474;28;20307;-51
2021/09/09 00:44:47;;;;;;;20.57;16.67;;;19.90;1.00;;;;;;5001110;28;20637;-50
2021/09/09 00:47:14;;;;;;;20.67;16.40;;;19.90;1.00;;;;;;4999583;28;20197;-51
2021/09/09 00:49:43;;;;;;;21.50;16.43;;;19.80;1.00;;;;;;4992238;28;20300;-51
2021/09/09 00:52:12;;;;;;;21.23;15.37;;;19.80;1.00;;;;;;4998546;28;20293;-50
2021/09/09 00:54:41;;;;;;;20.50;15.57;;;19.70;1.00;;;;;;4994639;28;20288;-50
2021/09/09 00:57:08;;;;;;;19.90;16.53;;;19.70;1.00;;;;;;4996683;28;20741;-51
2021/09/09 00:59:36;;;;;;;21.20;16.10;;;19.70;1.00;;;;;;4994920;28;20304;-51
2021/09/09 01:02:04;;;;;;;22.17;16.33;;;19.70;99.90;;;;;;4998076;28;20670;-50
2021/09/09 01:04:32;;;;;;;19.67;16.27;;;19.70;98.60;;;;;;4994668;28;20194;-51
2021/09/09 01:07:00;;;;;;;18.03;15.33;;;19.70;26.60;;;;;;4996138;28;20236;-51
2021/09/09 01:09:28;;;;;;;18.77;15.83;;;19.70;1.00;;;;;;5000111;28;20249;-51
2021/09/09 01:11:55;;;;;;;18.60;15.63;;;19.60;99.90;;;;;;4994399;28;20249;-51
2021/09/09 01:14:23;;;;;;;21.63;16.80;;;19.60;99.90;;;;;;5003005;28;20289;-51
2021/09/09 01:16:50;;;;;;;21.57;16.30;;;19.60;1.00;;;;;;4996713;28;20206;-51
2021/09/09 01:19:18;;;;;;;19.10;15.43;;;19.50;1.00;;;;;;5001111;28;20973;-51
2021/09/09 01:21:45;;;;;;;19.40;15.67;;;19.50;1.00;;;;;;4997623;28;20569;-51
2021/09/09 01:24:18;;;;;;;21.23;15.97;;;19.50;1.00;;;;;;4989227;28;20231;-50
2021/09/09 01:27:02;;;;;;;20.80;15.47;;;19.50;1.00;;;;;;4997913;28;20702;-51
2021/09/09 01:29:36;;;;;;;21.07;15.73;;;19.50;1.00;;;;;;4996564;28;20197;-51
2021/09/09 01:32:06;;;;;;;21.87;16.07;;;19.50;99.90;;;;;;4998770;28;20225;-51
2021/09/09 01:34:34;;;;;;;20.30;15.60;;;19.50;1.00;;;;;;4997398;28;20578;-51
2021/09/09 01:37:01;;;;;;;22.50;15.53;;;19.40;1.00;;;;;;4995111;28;20743;-51
2021/09/09 01:39:31;;;;;;;19.07;15.70;;;19.30;99.90;;;;;;4999876;28;20677;-51
2021/09/09 01:41:59;;;;;;;24.50;16.20;;;19.40;1.00;;;;;;4994191;28;20217;-51
2021/09/09 01:44:29;;;;;;;20.17;16.43;;;19.30;1.00;;;;;;4995715;28;20205;-51
2021/09/09 01:46:57;;;;;;;20.43;16.50;;;19.30;99.90;;;;;;4999549;28;20224;-51
2021/09/09 01:49:25;;;;;;;18.97;14.97;;;19.20;1.00;;;;;;4999211;28;20255;-51
2021/09/09 01:51:52;;;;;;;21.87;17.23;;;19.30;1.00;;;;;;4995860;28;20233;-51
2021/09/09 01:54:19;;;;;;;22.53;16.73;;;19.20;1.00;;;;;;4993277;28;20301;-51
2021/09/09 01:56:46;;;;;;;21.17;16.27;;;19.20;1.00;;;;;;4998843;28;20731;-51
2021/09/09 01:59:13;;;;;;;21.27;16.50;;;19.20;99.90;;;;;;4997305;28;20583;-51
2021/09/09 02:01:40;;;;;;;21.97;16.77;;;19.20;1.00;;;;;;4998374;28;20295;-51
2021/09/09 02:04:07;;;;;;;19.40;15.77;;;19.10;99.90;;;;;;4994007;28;20205;-51
2021/09/09 02:06:34;;;;;;;18.87;15.23;;;19.20;99.90;;;;;;4998122;28;20308;-51
2021/09/09 02:09:02;;;;;;;18.23;16.30;;;19.10;1.00;;;;;;4998647;28;20243;-50
2021/09/09 02:11:30;;;;;;;19.43;15.53;;;19.10;1.00;;;;;;4997176;28;20285;-50
2021/09/09 02:13:56;;;;;;;19.50;15.33;;;19.00;99.90;;;;;;4997887;28;20312;-51
2021/09/09 02:16:23;;;;;;;21.00;17.13;;;19.00;1.00;;;;;;4998843;28;20228;-51
2021/09/09 02:18:50;;;;;;;18.23;15.63;;;19.00;1.00;;;;;;4998080;28;20303;-51
2021/09/09 02:21:17;;;;;;;18.67;15.47;;;19.00;1.00;;;;;;4999781;28;20205;-51
2021/09/09 02:23:44;;;;;;;19.77;16.23;;;19.00;1.00;;;;;;4999516;28;20608;-51
2021/09/09 02:26:11;;;;;;;20.63;16.80;;;19.00;1.00;;;;;;4992221;28;20297;-51
2021/09/09 02:28:37;;;;;;;20.10;15.53;;;18.90;99.90;;;;;;5002365;28;20236;-50
2021/09/09 02:31:04;;;;;;;22.27;17.13;;;18.90;1.00;;;;;;4993539;28;20281;-50
2021/09/09 02:33:31;;;;;;;22.30;17.07;;;18.90;99.90;;;;;;4993445;28;20388;-50
2021/09/09 02:35:58;;;;;;;21.73;16.67;;;18.90;99.90;;;;;;4993105;28;20217;-50
2021/09/09 02:38:25;;;;;;;20.13;16.03;;;18.80;1.00;;;;;;4997044;28;20296;-51
2021/09/09 02:40:51;;;;;;;19.50;15.97;;;18.80;94.80;;;;;;5013869;28;20209;-51
2021/09/09 02:43:18;;;;;;;19.77;16.97;;;18.80;99.90;;;;;;4996864;28;20637;-50
2021/09/09 02:45:45;;;;;;;19.93;16.33;;;18.80;99.90;;;;;;4995098;28;20332;-50
2021/09/09 02:48:12;;;;;;;23.00;16.43;;;18.90;60.30;;;;;;4993179;28;20552;-50
2021/09/09 02:50:39;;;;;;;18.83;15.53;;;18.80;1.00;;;;;;4994572;28;20241;-51
2021/09/09 02:53:06;;;;;;;22.87;17.93;;;18.90;1.00;;;;;;4997293;28;20649;-51
2021/09/09 02:55:33;;;;;;;20.03;15.87;;;18.80;1.00;;;;;;4995716;28;20228;-50
2021/09/09 02:58:00;;;;;;;20.57;16.30;;;18.80;99.90;;;;;;4996471;28;20236;-51
2021/09/09 03:00:26;;;;;;;20.30;15.93;;;18.80;1.00;;;;;;4998877;28;20312;-51
2021/09/09 03:02:53;;;;;;;21.67;17.50;;;18.70;99.90;;;;;;4998207;28;20371;-51
2021/09/09 03:05:20;;;;;;;20.57;16.47;;;18.70;1.00;;;;;;4999472;28;20201;-50
2021/09/09 03:07:47;;;;;;;18.60;16.03;;;18.70;1.00;;;;;;5012272;28;20701;-51
2021/09/09 03:10:14;;;;;;;23.70;17.00;;;18.70;1.00;;;;;;5000802;28;20207;-51
2021/09/09 03:12:41;;;;;;;21.03;16.63;;;18.60;1.00;;;;;;5002909;28;20355;-51
2021/09/09 03:15:08;;;;;;;24.27;17.33;;;18.70;1.00;;;;;;5004418;28;20302;-51
2021/09/09 03:17:35;;;;;;;20.67;17.27;;;18.70;1.00;;;;;;5000816;28;20296;-52
2021/09/09 03:20:03;;;;;;;23.33;15.87;;;18.70;1.00;;;;;;4999368;28;20602;-51
2021/09/09 03:22:30;;;;;;;18.77;16.77;;;18.60;55.90;;;;;;5000346;28;20198;-51
2021/09/09 03:24:57;;;;;;;22.03;17.23;;;18.60;99.90;;;;;;4997350;28;20651;-50
2021/09/09 03:27:24;;;;;;;22.17;16.87;;;18.60;99.90;;;;;;5003474;28;20961;-51
2021/09/09 03:29:51;;;;;;;23.70;18.30;;;18.60;99.90;;;;;;5004988;28;20534;-51
2021/09/09 03:32:17;;;;;;;21.27;16.90;;;18.60;99.90;;;;;;4998423;28;20617;-51
2021/09/09 03:34:44;;;;;;;19.63;16.57;;;18.60;22.70;;;;;;4997041;28;20231;-52
2021/09/09 03:37:11;;;;;;;19.63;16.73;;;18.50;99.90;;;;;;4997639;28;20315;-50
2021/09/09 03:39:38;;;;;;;21.17;16.90;;;18.60;99.90;;;;;;5001998;28;20367;-52
2021/09/09 03:42:05;;;;;;;22.90;17.60;;;18.60;99.90;;;;;;5002232;28;20310;-51
2021/09/09 03:44:31;;;;;;;20.53;16.53;;;18.50;1.00;;;;;;5001869;28;20903;-52
2021/09/09 03:46:58;;;;;;;23.67;17.87;;;18.50;99.90;;;;;;5004368;28;20327;-51
2021/09/09 03:49:25;;;;;;;19.33;16.43;;;18.50;99.90;;;;;;4998286;28;20561;-51
2021/09/09 03:51:52;;;;;;;23.93;17.30;;;18.50;99.90;;;;;;5000023;28;20287;-51
2021/09/09 03:54:18;;;;;;;23.83;17.87;;;18.50;1.00;;;;;;4998524;28;20307;-51
2021/09/09 03:56:45;;;;;;;21.07;17.13;;;18.50;1.00;;;;;;5000299;28;20295;-50
2021/09/09 03:59:12;;;;;;;22.63;17.50;;;18.50;99.90;;;;;;5002233;28;20286;-51
2021/09/09 04:01:39;;;;;;;23.10;18.50;;;18.50;99.90;;;;;;4999799;28;20345;-50
2021/09/09 04:04:06;;;;;;;20.50;17.63;;;18.50;99.90;;;;;;5000115;28;20572;-51
2021/09/09 04:06:33;;;;;;;22.37;17.93;;;18.40;1.00;;;;;;4994416;28;20232;-51
2021/09/09 04:09:00;;;;;;;24.23;17.87;;;18.40;1.00;;;;;;5004843;28;20303;-51
2021/09/09 04:11:26;;;;;;;24.37;18.57;;;18.40;1.00;;;;;;5000256;28;20277;-51
2021/09/09 04:13:53;;;;;;;20.83;16.33;;;18.30;1.00;;;;;;4997554;28;20325;-51
2021/09/09 04:16:20;;;;;;;22.87;18.53;;;18.30;1.00;;;;;;5000580;28;20297;-51
2021/09/09 04:18:47;;;;;;;24.30;18.07;;;18.20;1.00;;;;;;4999363;28;20613;-51
2021/09/09 04:21:14;;;;;;;23.30;18.17;;;18.30;1.00;;;;;;4999288;28;20243;-51
2021/09/09 04:23:40;;;;;;;20.60;17.13;;;18.30;1.00;;;;;;5004210;28;20655;-50
2021/09/09 04:26:07;;;;;;;22.13;17.57;;;18.30;1.00;;;;;;4996766;28;20329;-51
2021/09/09 04:28:34;;;;;;;22.07;17.53;;;18.30;1.00;;;;;;5000230;28;20246;-51
2021/09/09 04:31:01;;;;;;;19.60;16.43;;;18.20;1.00;;;;;;4996983;28;20267;-50
2021/09/09 04:33:28;;;;;;;21.30;17.07;;;18.20;1.00;;;;;;4998679;28;20299;-51
2021/09/09 04:35:54;;;;;;;21.90;17.23;;;18.20;1.00;;;;;;4999379;28;20598;-50
2021/09/09 04:38:21;;;;;;;22.07;17.33;;;18.20;1.00;;;;;;4998778;28;20208;-51
2021/09/09 04:40:48;;;;;;;21.50;16.87;;;18.20;1.00;;;;;;4994804;28;20366;-51
2021/09/09 04:43:15;;;;;;;23.57;17.20;;;18.30;1.00;;;;;;5003545;28;20795;-50
2021/09/09 04:45:45;;;;;;;21.13;17.27;;;18.10;1.00;;;;;;4998406;28;20203;-51
2021/09/09 04:48:12;;;;;;;19.47;16.50;;;18.20;1.00;;;;;;5000758;28;20207;-50
2021/09/09 04:50:39;;;;;;;19.93;16.37;;;18.30;1.00;;;;;;4998496;28;20307;-50
2021/09/09 04:53:06;;;;;;;21.50;16.33;;;18.20;1.00;;;;;;5002596;28;20251;-50
2021/09/09 04:55:33;;;;;;;22.17;16.80;;;18.20;1.00;;;;;;4997123;28;20320;-51
2021/09/09 04:57:59;;;;;;;24.20;17.60;;;18.20;1.00;;;;;;4998143;28;20210;-51
2021/09/09 05:00:26;;;;;;;22.43;17.63;;;18.20;1.00;;;;;;4995441;28;21924;-50
2021/09/09 05:02:53;;;;;;;26.30;17.17;;;18.20;1.00;;;;;;5000397;28;20304;-51
2021/09/09 05:05:20;;;;;;;21.97;17.23;;;18.10;1.00;;;;;;4994926;28;20650;-51
2021/09/09 05:07:47;;;;;;;23.50;17.23;;;18.10;1.00;;;;;;5000636;28;20299;-51
2021/09/09 05:10:14;;;;;;;23.60;16.90;;;18.20;1.00;;;;;;4996815;28;20196;-50
2021/09/09 05:12:41;;;;;;;22.53;18.30;;;18.20;1.00;;;;;;5000435;28;20282;-50
2021/09/09 05:15:08;;;;;;;22.97;18.13;;;18.10;1.00;;;;;;4996698;28;20648;-50
2021/09/09 05:17:35;;;;;;;23.07;17.87;;;18.10;1.00;;;;;;4993531;28;20318;-51
2021/09/09 05:20:02;;;;;;;24.67;17.97;;;18.10;1.00;;;;;;4998335;28;20667;-50
2021/09/09 05:22:32;;;;;;;25.37;17.93;;;18.10;1.00;;;;;;5001582;28;20204;-50
2021/09/09 05:25:01;;;;;;;22.27;17.50;;;18.20;1.00;;;;;;4998139;28;20294;-51
2021/09/09 05:27:28;;;;;;;22.83;16.27;;;18.20;1.00;;;;;;4999761;28;20305;-50
2021/09/09 05:29:55;;;;;;;22.23;16.73;;;18.20;1.00;;;;;;4999214;28;20258;-51
2021/09/09 05:32:22;;;;;;;21.90;16.53;;;18.20;1.00;;;;;;4997877;28;20400;-51
2021/09/09 05:34:49;;;;;;;21.00;16.37;;;18.10;1.00;;;;;;4995103;28;20643;-51
2021/09/09 05:37:16;;;;;;;19.97;16.47;;;18.20;1.00;;;;;;4996101;28;20224;-51
2021/09/09 05:39:42;;;;;;;19.70;16.57;;;18.10;1.00;;;;;;4993025;28;20204;-51
2021/09/09 05:42:09;;;;;;;20.80;16.50;;;18.20;1.00;;;;;;4994402;28;20262;-51
2021/09/09 05:44:36;;;;;;;19.80;15.83;;;18.20;1.00;;;;;;4998047;28;20731;-52
2021/09/09 05:47:03;;;;;;;22.53;17.10;;;18.30;1.00;;;;;;4998621;28;20663;-51
2021/09/09 05:49:29;;;;;;;22.00;17.10;;;18.30;1.00;;;;;;5002706;28;20631;-50
2021/09/09 05:51:56;;;;;;;22.80;16.90;;;18.30;1.00;;;;;;5004001;28;20285;-51
2021/09/09 05:54:23;;;;;;;21.10;15.97;;;18.20;1.00;;;;;;4996774;28;20204;-51
2021/09/09 05:56:50;;;;;;;20.40;16.23;;;18.30;1.00;;;;;;4994744;28;20303;-50
2021/09/09 05:59:17;;;;;;;24.67;16.93;;;18.30;1.00;;;;;;5002021;28;20229;-51
2021/09/09 06:01:45;;;;;;;27.60;19.03;;;18.30;1.00;;;;;;4995754;28;20647;-50
2021/09/09 06:04:14;;;;;;;20.93;16.33;;;18.40;1.00;;;;;;4998949;28;20285;-50
2021/09/09 06:06:41;;;;;;;22.63;17.20;;;18.40;1.00;;;;;;4999974;28;20218;-50
2021/09/09 06:09:07;;;;;;;20.27;15.47;;;18.40;1.00;;;;;;5002638;28;20225;-50
2021/09/09 06:11:35;;;;;;;21.47;16.67;;;18.40;1.00;;;;;;5003708;28;20665;-50
2021/09/09 06:14:03;;;;;;;22.73;17.13;;;18.40;1.00;;;;;;5001802;28;20330;-50
2021/09/09 06:16:30;;;;;;;22.23;16.77;;;18.50;1.00;;;;;;4996951;28;20284;-50
2021/09/09 06:18:58;;;;;;;20.13;16.47;;;18.50;1.00;;;;;;4997497;28;20297;-51
2021/09/09 06:21:25;;;;;;;23.87;17.93;;;18.50;1.00;;;;;;5000087;28;20291;-50
2021/09/09 06:23:51;;;;;;;25.13;16.33;;;18.60;1.00;;;;;;4994963;28;20228;-50
2021/09/09 06:26:19;;;;;;;22.63;16.60;;;18.50;1.00;;;;;;5000540;28;20304;-50
2021/09/09 06:28:46;;;;;;;21.57;17.17;;;18.50;1.00;;;;;;4993547;28;20682;-50
2021/09/09 06:31:13;;;;;;;20.17;17.20;;;18.30;1.00;;;;;;4992806;28;20651;-50
2021/09/09 06:33:40;;;;;;;21.87;17.37;;;18.40;1.00;;;;;;4991636;28;20561;-50
2021/09/09 06:36:07;;;;;;;22.83;17.30;;;18.60;1.00;;;;;;4993389;28;20199;-50
2021/09/09 06:38:34;;;;;;;23.77;18.97;;;18.70;1.00;;;;;;4996797;28;20327;-50
2021/09/09 06:41:01;;;;;;;22.83;16.83;;;18.60;1.00;;;;;;4996099;28;20213;-53
2021/09/09 06:43:27;;;;;;;23.47;17.43;;;18.80;1.00;;;;;;4997158;28;20310;-50
2021/09/09 06:45:54;;;;;;;23.50;17.70;;;18.90;1.00;;;;;;4997912;28;20197;-50
2021/09/09 06:48:21;;;;;;;32.30;16.50;;;19.00;1.00;;;;;;4993827;28;20214;-50
2021/09/09 06:50:48;;;;;;;19.73;15.43;;;19.10;1.00;;;;;;4996303;28;20220;-51
2021/09/09 06:53:15;;;;;;;23.53;16.33;;;19.10;1.00;;;;;;5008692;28;20293;-50
2021/09/09 06:55:42;;;;;;;20.77;15.83;;;19.20;1.00;;;;;;4994309;28;20733;-50
2021/09/09 06:58:09;;;;;;;24.60;16.23;;;19.30;99.90;;;;;;4990451;28;20320;-51
2021/09/09 07:00:40;;;;;;;23.47;17.57;;;19.20;1.00;;;;;;4995802;28;20277;-50
2021/09/09 07:03:07;;;;;;;19.80;15.20;;;19.20;1.00;;;;;;4992362;28;20682;-51
2021/09/09 07:05:35;;;;;;;21.30;16.60;;;19.30;1.00;;;;;;4989763;28;20215;-50
2021/09/09 07:08:02;;;;;;;21.37;17.00;;;19.20;99.90;;;;;;4993271;28;20285;-50
2021/09/09 07:10:29;;;;;;;20.97;16.77;;;19.50;99.90;;;;;;4997775;28;20221;-50
2021/09/09 07:12:56;;;;;;;19.90;16.17;;;19.60;99.90;;;;;;4993060;28;20229;-50
2021/09/09 07:15:23;;;;;;;18.00;14.43;;;19.60;1.00;;;;;;4991276;28;20260;-51
2021/09/09 07:17:52;;;;;;;19.67;14.90;;;19.70;1.00;;;;;;4989428;28;20217;-51
2021/09/09 07:20:19;;;;;;;21.20;15.83;;;19.90;99.90;;;;;;4992187;28;20397;-51
2021/09/09 07:22:46;;;;;;;20.93;15.17;;;20.10;99.90;;;;;;4989969;28;20359;-51
2021/09/09 07:25:13;;;;;;;19.17;15.40;;;20.10;99.90;;;;;;4987804;28;20290;-50
2021/09/09 07:27:40;;;;;;;19.93;13.97;;;20.30;1.00;;;;;;4993189;28;20240;-51
2021/09/09 07:30:07;;;;;;;17.53;13.27;;;20.40;1.00;;;;;;4995199;28;20291;-50
2021/09/09 07:32:35;;;;;;;19.27;14.47;;;20.50;1.00;;;;;;4997249;28;20282;-49
2021/09/09 07:35:04;;;;;;;22.73;14.77;;;20.50;1.00;;;;;;4993042;28;20296;-50
2021/09/09 07:37:31;;;;;;;17.07;13.07;;;20.50;99.90;;;;;;4997023;28;20227;-52
2021/09/09 07:39:58;;;;;;;21.80;13.80;;;20.80;1.00;;;;;;4994355;28;20287;-50
2021/09/09 07:42:25;;;;;;;18.90;13.03;;;20.80;1.00;;;;;;4993110;28;20300;-51
2021/09/09 07:44:52;;;;;;;16.10;12.93;;;20.90;1.00;;;;;;4991448;28;20230;-50
2021/09/09 07:47:21;;;;;;;16.77;13.97;;;21.10;83.20;;;;;;4992838;28;20212;-50
2021/09/09 07:49:48;;;;;;;17.67;14.13;;;21.10;99.90;;;;;;5000468;28;20304;-50
2021/09/09 07:52:15;;;;;;;17.60;13.80;;;21.10;99.90;;;;;;5003443;28;20622;-50
2021/09/09 07:54:42;;;;;;;15.70;12.67;;;21.10;87.70;;;;;;5009563;28;20684;-50
2021/09/09 07:57:09;;;;;;;15.83;12.63;;;21.20;1.00;;;;;;4997280;28;20268;-50
2021/09/09 07:59:36;;;;;;;19.90;13.23;;;21.20;4.00;;;;;;4993033;28;20216;-50
2021/09/09 08:02:03;;;;;;;16.77;13.00;;;21.30;1.00;;;;;;4994609;28;20244;-50
2021/09/09 08:04:30;;;;;;;17.30;13.37;;;21.40;1.00;;;;;;4993938;28;20601;-50
2021/09/09 08:06:57;;;;;;;18.57;13.07;;;21.60;1.00;;;;;;4996901;28;20340;-50
2021/09/09 08:09:24;;;;;;;15.37;13.27;;;21.50;99.90;;;;;;4995111;28;20798;-49
2021/09/09 08:11:51;;;;;;;17.23;12.43;;;21.50;1.00;;;;;;4997556;28;20544;-51
2021/09/09 08:14:18;;;;;;;16.57;13.10;;;21.60;1.00;;;;;;4998584;28;20283;-51
2021/09/09 08:16:45;;;;;;;18.40;12.07;;;21.80;1.00;;;;;;4999303;28;20397;-52
2021/09/09 08:19:11;;;;;;;14.90;11.60;;;21.80;99.90;;;;;;4994131;28;22882;-52
2021/09/09 08:21:38;;;;;;;17.03;11.43;;;21.90;1.00;;;;;;5000067;28;20291;-52
2021/09/09 08:24:05;;;;;;;15.90;11.23;;;22.00;99.90;;;;;;4997126;28;20236;-52
2021/09/09 08:26:32;;;;;;;16.40;12.47;;;21.90;99.90;;;;;;4995046;28;20227;-52
2021/09/09 08:28:59;;;;;;;14.47;11.63;;;21.80;1.00;;;;;;4999972;28;20275;-52
2021/09/09 08:31:27;;;;;;;13.20;11.33;;;21.90;1.00;;;;;;4994314;28;20316;-51
2021/09/09 08:33:57;;;;;;;16.65;12.77;;;22.00;1.00;;;;;;4991822;28;20510;-50
2021/09/09 08:36:25;;;;;;;14.53;10.80;;;22.60;99.90;;;;;;4995900;28;20303;-50
2021/09/09 08:38:52;;;;;;;14.93;10.83;;;23.50;1.00;;;;;;4994409;28;20654;-51
2021/09/09 08:41:20;;;;;;;13.30;11.87;;;24.30;1.00;;;;;;4998487;28;20203;-50
2021/09/09 08:43:47;;;;;;;11.47;10.27;;;24.50;1.00;;;;;;4995813;28;20606;-50
2021/09/09 08:46:16;;;;;;;12.60;9.80;;;24.80;99.90;;;;;;5000214;28;20714;-50
2021/09/09 08:48:45;;;;;;;12.37;10.47;;;24.90;1.00;;;;;;4995778;28;20526;-50
2021/09/09 08:51:16;;;;;;;14.27;10.30;;;25.20;99.90;;;;;;5000185;28;20289;-51
2021/09/09 08:53:44;;;;;;;13.70;11.53;;;25.60;1.70;;;;;;4994183;28;20246;-51
2021/09/09 08:56:17;;;;;;;16.43;12.07;;;24.90;99.90;;;;;;4999305;28;20294;-50
2021/09/09 08:58:44;;;;;;;15.37;11.30;;;24.50;1.00;;;;;;4995234;28;20626;-50
2021/09/09 09:01:11;;;;;;;19.63;11.87;;;24.60;1.00;;;;;;4996868;28;20630;-51
2021/09/09 09:03:44;;;;;;;12.07;10.57;;;24.50;1.00;;;;;;4990992;28;20643;-50
2021/09/09 09:06:26;;;;;;;12.67;9.27;;;24.40;99.90;;;;;;4998465;28;20210;-50
2021/09/09 09:08:58;;;;;;;15.20;11.37;;;25.00;1.00;;;;;;5008470;28;20345;-51
2021/09/09 09:11:28;;;;;;;13.20;9.13;;;25.00;99.90;;;;;;4993921;28;20667;-51
2021/09/09 09:13:56;;;;;;;13.77;12.10;;;25.10;99.90;;;;;;4994976;28;20235;-49
2021/09/09 09:16:24;;;;;;;11.33;8.80;;;25.10;99.90;;;;;;4996237;28;20238;-48
2021/09/09 09:18:51;;;;;;;12.23;10.87;;;25.30;99.90;;;;;;4995020;28;20595;-50
2021/09/09 09:21:20;;;;;;;14.67;11.10;;;25.30;93.70;;;;;;4995574;28;20244;-51
2021/09/09 09:23:48;;;;;;;15.57;11.77;;;25.50;1.00;;;;;;4995638;28;20243;-49
2021/09/09 09:26:24;;;;;;;13.60;11.60;;;25.50;1.00;;;;;;4997803;28;20212;-49
2021/09/09 09:28:53;;;;;;;12.10;9.70;;;25.30;1.00;;;;;;4996259;28;20790;-49
2021/09/09 09:31:26;;;;;;;17.13;12.77;;;25.20;99.90;;;;;;4995921;28;20231;-49
2021/09/09 09:33:58;;;;;;;12.50;10.53;;;24.90;1.00;;;;;;4997484;28;20290;-48
2021/09/09 09:36:30;;;;;;;14.47;10.73;;;24.90;1.00;;;;;;5002845;28;20292;-48
2021/09/09 09:39:14;;;;;;;18.30;12.37;;;25.10;99.90;;;;;;4999933;28;20202;-49
2021/09/09 09:42:01;;;;;;;13.37;11.67;;;25.10;1.00;;;;;;4997813;28;20234;-50
2021/09/09 09:44:40;;;;;;;17.17;12.80;;;25.20;1.00;;;;;;4998465;28;21645;-50
2021/09/09 09:47:21;;;;;;;16.03;13.50;;;25.10;99.60;;;;;;5001659;28;20640;-49
2021/09/09 09:49:55;;;;;;;15.67;12.93;;;24.80;6.90;;;;;;5000388;28;20228;-48
2021/09/09 09:52:27;;;;;;;17.57;13.30;;;24.60;99.10;;;;;;5004226;28;20273;-50
2021/09/09 09:54:58;;;;;;;15.37;12.17;;;24.70;1.00;;;;;;4999179;28;20567;-50
2021/09/09 09:57:27;;;;;;;15.87;13.40;;;24.60;1.00;;;;;;4996797;28;20558;-49
2021/09/09 09:59:54;;;;;;;16.90;14.07;;;24.90;1.00;;;;;;4998294;28;20233;-49
2021/09/09 10:02:22;;;;;;;17.17;13.10;;;24.80;1.00;;;;;;5000831;28;20202;-49
2021/09/09 10:04:51;;;;;;;18.30;15.17;;;24.90;1.00;;;;;;4993243;28;20297;-49
2021/09/09 10:07:18;;;;;;;20.80;15.00;;;24.60;99.90;;;;;;4993592;28;22023;-50
2021/09/09 10:09:46;;;;;;;14.80;13.27;;;24.60;1.00;;;;;;4996511;28;20284;-50
2021/09/09 10:12:14;;;;;;;17.87;14.93;;;24.60;1.00;;;;;;4993033;28;20525;-51
2021/09/09 10:14:48;;;;;;;19.07;15.73;;;24.70;1.00;;;;;;4998243;28;20216;-50
2021/09/09 10:17:22;;;;;;;18.13;14.63;;;24.70;1.00;;;;;;4991267;28;20205;-50
2021/09/09 10:19:49;;;;;;;16.63;14.17;;;24.70;1.00;;;;;;4992401;28;20289;-49
2021/09/09 10:22:17;;;;;;;18.10;14.77;;;24.70;99.90;;;;;;4993735;28;20221;-50
2021/09/09 10:24:50;;;;;;;20.33;14.67;;;24.70;99.90;;;;;;4994978;28;20324;-49
2021/09/09 10:27:27;;;;;;;17.77;14.83;;;24.80;99.90;;;;;;4994357;28;20237;-49
2021/09/09 10:30:03;;;;;;;18.50;15.50;;;25.10;99.90;;;;;;5003289;28;20288;-50
2021/09/09 10:32:36;;;;;;;20.47;14.93;;;24.90;99.90;;;;;;4997349;28;20325;-50
2021/09/09 10:37:52;;;;;;;18.23;15.30;;;25.20;1.00;;;;;;4997700;28;20244;-50
2021/09/09 10:40:28;;;;;;;21.10;17.00;;;25.30;99.90;;;;;;4989350;28;20222;-50
2021/09/09 10:42:56;;;;;;;19.50;15.57;;;25.20;1.00;;;;;;4991447;28;20237;-50
2021/09/09 10:45:38;;;;;;;19.43;15.03;;;25.30;1.00;;;;;;5003220;28;20208;-50
2021/09/09 10:48:18;;;;;;;17.43;14.97;;;25.10;1.00;;;;;;4997636;28;20247;-50
2021/09/09 10:51:04;;;;;;;16.73;13.57;;;25.00;99.90;;;;;;4994776;28;20239;-49
2021/09/09 10:53:34;;;;;;;17.13;14.03;;;25.20;99.90;;;;;;4993845;28;20240;-50
2021/09/09 10:56:14;;;;;;;18.17;14.50;;;25.50;1.00;;;;;;4989021;28;20717;-50
2021/09/09 10:58:42;;;;;;;18.07;13.93;;;25.50;1.00;;;;;;5005195;28;20824;-50
2021/09/09 11:01:10;;;;;;;19.23;15.67;;;25.40;99.90;;;;;;5005790;28;20201;-50
2021/09/09 11:03:48;;;;;;;21.77;15.47;;;25.50;1.00;;;;;;4988809;28;20214;-50
2021/09/09 11:06:16;;;;;;;17.97;14.13;;;25.70;1.00;;;;;;4990781;28;20301;-49
2021/09/09 11:08:45;;;;;;;17.43;13.23;;;25.60;1.00;;;;;;4989574;28;20221;-49
2021/09/09 11:11:30;;;;;;;18.23;15.37;;;25.60;1.00;;;;;;5001413;28;20293;-50
2021/09/09 11:14:05;;;;;;;17.57;14.70;;;25.20;99.90;;;;;;5009304;28;20725;-50
2021/09/09 11:16:34;;;;;;;19.20;15.77;;;25.30;1.00;;;;;;5000743;28;20185;-50
2021/09/09 11:19:02;;;;;;;18.27;14.43;;;25.20;99.90;;;;;;5005016;28;20201;-49
2021/09/09 11:21:32;;;;;;;15.00;12.70;;;25.30;99.90;;;;;;5006701;28;20664;-49
2021/09/09 11:24:04;;;;;;;17.17;13.80;;;25.80;53.70;;;;;;5006179;28;20642;-50
2021/09/09 11:26:31;;;;;;;14.03;12.30;;;25.80;1.00;;;;;;4997679;28;20236;-50
2021/09/09 11:28:59;;;;;;;20.57;13.93;;;26.50;1.00;;;;;;4994647;28;20705;-49
2021/09/09 11:31:28;;;;;;;17.47;14.50;;;26.50;99.90;;;;;;4995083;28;20249;-49
2021/09/09 11:33:56;;;;;;;17.93;13.93;;;27.30;1.00;;;;;;5001431;28;20296;-49
2021/09/09 11:36:36;;;;;;;14.90;11.83;;;27.60;1.00;;;;;;5008277;28;20202;-49
2021/09/09 11:39:07;;;;;;;18.07;14.43;;;27.70;61.80;;;;;;5006652;28;20239;-50
2021/09/09 11:41:36;;;;;;;18.57;14.67;;;28.20;1.00;;;;;;4999011;28;20572;-48
2021/09/09 11:44:06;;;;;;;16.53;12.73;;;27.60;99.90;;;;;;5004334;28;20371;-48
2021/09/09 11:46:36;;;;;;;19.17;15.30;;;27.70;99.90;;;;;;4998479;28;20205;-48
2021/09/09 11:49:05;;;;;;;19.47;15.00;;;28.60;1.00;;;;;;4996043;28;20655;-50
2021/09/09 11:51:38;;;;;;;17.50;14.87;;;28.10;1.00;;;;;;5001097;28;20222;-49
2021/09/09 11:54:08;;;;;;;17.30;13.90;;;27.70;90.10;;;;;;5002423;28;20343;-49
2021/09/09 11:56:36;;;;;;;16.73;13.60;;;28.10;99.90;;;;;;5001683;28;20309;-48
2021/09/09 11:59:08;;;;;;;17.93;13.10;;;28.20;26.50;;;;;;5002539;28;20306;-48
2021/09/09 12:01:37;;;;;;;19.73;14.43;;;28.10;99.90;;;;;;4990187;28;20565;-49
2021/09/09 12:04:06;;;;;;;17.73;13.97;;;28.80;1.00;;;;;;4994899;28;20334;-50
2021/09/09 12:06:33;;;;;;;19.67;15.33;;;28.40;1.00;;;;;;4998351;28;20233;-49
2021/09/09 12:09:00;;;;;;;16.08;12.48;;;28.30;1.00;;;;;;5005416;28;20243;-48
2021/09/09 12:11:27;;;;;;;15.77;12.68;;;28.70;1.00;;;;;;4995391;28;20232;-48
2021/09/09 12:13:54;;;;;;;14.75;11.95;;;28.60;1.00;;;;;;4990686;28;20674;-48
2021/09/09 12:16:33;;;;;;;11.98;9.48;;;28.30;1.00;;;;;;4999725;28;20264;-48
2021/09/09 12:19:03;;;;;;;15.80;13.00;;;29.40;1.00;;;;;;4991729;28;20260;-49
2021/09/09 12:21:30;;;;;;;13.02;10.35;;;29.20;1.00;;;;;;4996793;28;20221;-49
2021/09/09 12:24:03;;;;;;;13.13;10.35;;;30.10;99.90;;;;;;4999695;28;20217;-50
2021/09/09 12:26:32;;;;;;;16.52;13.35;;;29.20;1.00;;;;;;4992643;28;20212;-49
2021/09/09 12:29:10;;;;;;;13.20;9.43;;;28.60;1.00;;;;;;5002019;28;20280;-50
2021/09/09 12:31:37;;;;;;;16.75;12.13;;;28.40;99.90;;;;;;5000169;28;20332;-49
2021/09/09 12:34:16;;;;;;;14.35;10.30;;;29.60;99.90;;;;;;4998742;28;20212;-50
2021/09/09 12:36:50;;;;;;;10.80;9.70;;;30.00;99.90;;;;;;4992506;28;20641;-49
2021/09/09 12:39:21;;;;;;;11.63;9.05;;;29.10;1.00;;;;;;5000514;28;20300;-50
2021/09/09 12:41:48;;;;;;;11.15;9.95;;;28.40;32.20;;;;;;5006940;28;20235;-50